createdAt,value
2023-02-12T00:01:17.689Z,99477.50
2023-02-12T00:03:45.342Z,99481.00
2023-02-12T00:06:15.736Z,99482.94
2023-02-12T00:08:44.131Z,99481.66
2023-02-12T00:11:14.748Z,99481.66
2023-02-12T00:13:42.908Z,99461.50
2023-02-12T00:16:14.810Z,99468.91
2023-02-12T00:18:43.158Z,99462.31
2023-02-12T00:21:11.008Z,99462.19
2023-02-12T00:23:41.237Z,99477.34
2023-02-12T00:26:15.156Z,99474.72
2023-02-12T00:28:47.427Z,99476.84
2023-02-12T00:31:21.954Z,99484.97
2023-02-12T00:33:50.038Z,99484.28
2023-02-12T00:36:21.122Z,99487.75
2023-02-12T00:38:49.722Z,99488.63
2023-02-12T00:41:17.331Z,99483.47
2023-02-12T00:43:45.362Z,99495.84
2023-02-12T00:46:13.335Z,99491.78
2023-02-12T00:48:41.177Z,99488.91
2023-02-12T00:51:09.283Z,99496.16
2023-02-12T00:53:37.486Z,99496.53
2023-02-12T00:56:05.584Z,99494.19
2023-02-12T00:58:36.206Z,99489.22
2023-02-12T01:01:04.326Z,99493.50
2023-02-12T01:03:31.861Z,99498.41
2023-02-12T01:06:00.310Z,99509.66
2023-02-12T01:08:27.922Z,99508.84
2023-02-12T01:11:02.504Z,99515.78
2023-02-12T01:13:34.017Z,99527.16
2023-02-12T01:16:09.014Z,99514.47
2023-02-12T01:18:37.803Z,99520.63
2023-02-12T01:21:21.662Z,99515.19
2023-02-12T01:23:50.087Z,99519.25
2023-02-12T01:26:19.606Z,99524.81
2023-02-12T01:28:54.320Z,99515.09
2023-02-12T01:31:24.732Z,99511.25
2023-02-12T01:33:54.746Z,99506.78
2023-02-12T01:36:23.494Z,99508.44
2023-02-12T01:38:51.559Z,99513.91
2023-02-12T01:41:23.372Z,99520.59
2023-02-12T01:44:05.989Z,99515.44
2023-02-12T01:46:34.268Z,99517.97
2023-02-12T01:49:03.282Z,99521.25
2023-02-12T01:51:32.679Z,99529.06
2023-02-12T01:54:05.247Z,99521.81
2023-02-12T01:56:34.454Z,99524.06
2023-02-12T01:59:02.771Z,99520.44
2023-02-12T02:01:34.018Z,99522.78
2023-02-12T02:04:07.858Z,99527.09
2023-02-12T02:06:42.342Z,99531.41
2023-02-12T02:09:10.133Z,99526.81
2023-02-12T02:11:56.318Z,99527.16
2023-02-12T02:14:34.155Z,99531.94
2023-02-12T02:17:39.546Z,99529.28
2023-02-12T02:20:29.220Z,99528.22
2023-02-12T02:23:05.887Z,99526.25
2023-02-12T02:26:08.088Z,99527.94
2023-02-12T02:29:00.517Z,99524.75
2023-02-12T02:31:48.659Z,99523.69
2023-02-12T02:34:21.906Z,99516.59
2023-02-12T02:37:00.149Z,99519.84
2023-02-12T02:40:09.967Z,99527.47
2023-02-12T02:42:44.109Z,99531.50
2023-02-12T02:45:13.822Z,99529.69
2023-02-12T02:47:53.011Z,99539.41
2023-02-12T02:50:24.928Z,99537.59
2023-02-12T02:53:16.057Z,99548.59
2023-02-12T02:55:49.718Z,99545.81
2023-02-12T02:58:20.684Z,99545.31
2023-02-12T03:01:11.365Z,99547.25
2023-02-12T03:03:52.161Z,99546.50
2023-02-12T03:06:28.027Z,99547.34
2023-02-12T03:09:05.481Z,99556.22
2023-02-12T03:11:34.593Z,99552.34
2023-02-12T03:14:18.041Z,99560.56
2023-02-12T03:17:35.603Z,99562.34
2023-02-12T03:20:12.384Z,99564.84
2023-02-12T03:22:45.000Z,99569.44
2023-02-12T03:25:19.261Z,99568.19
2023-02-12T03:28:00.839Z,99569.44
2023-02-12T03:30:39.449Z,99575.19
2023-02-12T03:33:51.721Z,99571.78
2023-02-12T03:36:53.250Z,99579.06
2023-02-12T03:39:39.212Z,99585.47
2023-02-12T03:42:14.718Z,99590.44
2023-02-12T03:44:56.454Z,99595.72
2023-02-12T03:47:31.749Z,99596.56
2023-02-12T03:50:42.289Z,99604.88
2023-02-12T03:53:09.822Z,99601.56
2023-02-12T03:55:42.720Z,99612.94
2023-02-12T03:58:14.892Z,99622.41
2023-02-12T04:00:43.241Z,99620.44
2023-02-12T04:03:11.107Z,99622.25
2023-02-12T04:05:38.624Z,99631.69
2023-02-12T04:08:09.268Z,99630.72
2023-02-12T04:11:15.549Z,99632.97
2023-02-12T04:13:59.779Z,99635.47
2023-02-12T04:16:40.719Z,99634.09
2023-02-12T04:19:13.274Z,99631.91
2023-02-12T04:21:46.573Z,99633.78
2023-02-12T04:24:31.060Z,99636.59
2023-02-12T04:27:07.275Z,99640.06
2023-02-12T04:29:53.388Z,99640.19
2023-02-12T04:32:44.137Z,99638.16
2023-02-12T04:35:32.855Z,99638.84
2023-02-12T04:38:41.811Z,99639.38
2023-02-12T04:41:09.815Z,99640.50
2023-02-12T04:43:37.721Z,99642.47
2023-02-12T04:46:07.795Z,99638.53
2023-02-12T04:48:46.011Z,99636.19
2023-02-12T04:51:13.469Z,99642.47
2023-02-12T04:53:41.262Z,99637.84
2023-02-12T04:56:13.201Z,99642.19
2023-02-12T04:58:41.762Z,99638.44
2023-02-12T05:01:10.351Z,99642.31
2023-02-12T05:03:38.232Z,99649.53
2023-02-12T05:06:08.034Z,99650.81
2023-02-12T05:08:35.921Z,99651.50
2023-02-12T05:11:05.305Z,99655.56
2023-02-12T05:13:32.896Z,99657.09
2023-02-12T05:16:00.915Z,99664.31
2023-02-12T05:18:29.162Z,99660.03
2023-02-12T05:20:58.647Z,99664.47
2023-02-12T05:23:28.343Z,99659.31
2023-02-12T05:25:59.030Z,99659.88
2023-02-12T05:28:27.164Z,99657.22
2023-02-12T05:30:55.125Z,99660.31
2023-02-12T05:33:22.662Z,99665.88
2023-02-12T05:35:50.230Z,99666.84
2023-02-12T05:38:17.760Z,99672.78
2023-02-12T05:45:28.352Z,99674.75
2023-02-12T05:47:56.660Z,99681.81
2023-02-12T05:50:24.262Z,99683.94
2023-02-12T05:53:01.325Z,99684.19
2023-02-12T05:55:29.128Z,99679.47
2023-02-12T05:57:56.600Z,99680.03
2023-02-12T06:00:24.137Z,99683.34
2023-02-12T06:02:51.786Z,99687.81
2023-02-12T06:05:19.290Z,99691.31
2023-02-12T06:07:46.754Z,99692.03
2023-02-12T06:10:14.340Z,99691.84
2023-02-12T06:12:41.758Z,99698.81
2023-02-12T06:15:09.517Z,99703.69
2023-02-12T06:17:36.979Z,99707.72
2023-02-12T06:20:04.761Z,99703.13
2023-02-12T06:22:32.279Z,99703.41
2023-02-12T06:24:59.800Z,99711.19
2023-02-12T06:27:27.284Z,99717.63
2023-02-12T06:29:54.720Z,99723.56
2023-02-12T06:32:22.702Z,99727.91
2023-02-12T06:34:51.545Z,99734.41
2023-02-12T06:37:19.028Z,99737.88
2023-02-12T06:39:46.501Z,99735.25
2023-02-12T06:42:13.976Z,99748.75
2023-02-12T06:44:41.527Z,99748.63
2023-02-12T06:47:09.042Z,99756.25
2023-02-12T06:49:36.586Z,99763.19
2023-02-12T06:52:04.104Z,99767.38
2023-02-12T06:54:31.595Z,99763.47
2023-02-12T06:56:59.036Z,99761.25
2023-02-12T06:59:26.495Z,99766.25
2023-02-12T07:01:53.945Z,99769.72
2023-02-12T07:04:21.808Z,99770.13
2023-02-12T07:06:49.224Z,99773.72
2023-02-12T07:09:16.809Z,99775.13
2023-02-12T07:11:44.294Z,99773.31
2023-02-12T07:14:16.737Z,99768.44
2023-02-12T07:16:44.242Z,99781.50
2023-02-12T07:19:14.152Z,99784.97
2023-02-12T07:21:41.651Z,99780.25
2023-02-12T07:24:12.224Z,99786.91
2023-02-12T07:26:40.823Z,99791.91
2023-02-12T07:29:08.514Z,99794.69
2023-02-12T07:31:36.080Z,99792.03
2023-02-12T07:34:03.533Z,99793.69
2023-02-12T07:36:33.038Z,99785.59
2023-02-12T07:39:01.759Z,99789.75
2023-02-12T07:41:31.810Z,99787.66
2023-02-12T07:44:07.051Z,99794.63
2023-02-12T07:46:48.699Z,99792.50
2023-02-12T07:49:19.387Z,99794.88
2023-02-12T07:51:48.268Z,99798.78
2023-02-12T07:54:15.928Z,99802.41
2023-02-12T07:56:47.220Z,99796.00
2023-02-12T07:59:18.152Z,99800.16
2023-02-12T08:01:50.709Z,99805.00
2023-02-12T08:04:21.029Z,99803.88
2023-02-12T08:06:50.817Z,99809.41
2023-02-12T08:09:21.186Z,99815.50
2023-02-12T08:11:49.207Z,99808.25
2023-02-12T08:14:18.740Z,99808.78
2023-02-12T08:16:48.876Z,99812.81
2023-02-12T08:19:21.755Z,99815.97
2023-02-12T08:21:53.159Z,99814.44
2023-02-12T08:24:22.346Z,99813.66
2023-02-12T08:26:50.899Z,99815.59
2023-02-12T08:29:21.195Z,99817.41
2023-02-12T08:31:50.261Z,99807.53
2023-02-12T08:34:21.537Z,99813.97
2023-02-12T08:36:50.621Z,99821.13
2023-02-12T08:39:18.782Z,99822.50
2023-02-12T08:41:47.377Z,99827.50
2023-02-12T08:44:15.793Z,99829.56
2023-02-12T08:46:50.265Z,99830.31
2023-02-12T08:49:21.364Z,99833.25
2023-02-12T08:51:51.836Z,99834.56
2023-02-12T08:54:22.619Z,99836.94
2023-02-12T08:56:50.703Z,99840.31
2023-02-12T08:59:18.415Z,99838.34
2023-02-12T09:01:46.071Z,99840.53
2023-02-12T09:04:18.146Z,99843.38
2023-02-12T09:06:46.742Z,99846.63
2023-02-12T09:09:15.052Z,99845.09
2023-02-12T09:11:44.829Z,99852.34
2023-02-12T09:14:16.726Z,99852.22
2023-02-12T09:16:44.967Z,99855.38
2023-02-12T09:19:14.225Z,99853.66
2023-02-12T09:21:42.054Z,99849.34
2023-02-12T09:24:10.412Z,99854.38
2023-02-12T09:26:39.586Z,99855.09
2023-02-12T09:29:07.060Z,99862.66
2023-02-12T09:31:34.762Z,99857.44
2023-02-12T09:34:06.019Z,99857.13
2023-02-12T09:36:34.459Z,99860.78
2023-02-12T09:39:02.021Z,99869.44
2023-02-12T09:41:42.797Z,99860.50
2023-02-12T09:44:48.438Z,99862.59
2023-02-12T09:47:34.099Z,99864.81
2023-02-12T09:50:33.181Z,99875.09
2023-02-12T09:53:02.090Z,99877.16
2023-02-12T09:55:31.926Z,99874.28
2023-02-12T09:58:02.314Z,99877.34
2023-02-12T10:00:31.964Z,99880.03
2023-02-12T10:03:05.995Z,99877.25
2023-02-12T10:05:41.217Z,99879.66
2023-02-12T10:08:39.649Z,99880.41
2023-02-12T10:11:07.111Z,99874.50
2023-02-12T10:13:52.917Z,99876.16
2023-02-12T10:16:38.673Z,99871.47
2023-02-12T10:19:33.397Z,99881.34
2023-02-12T10:22:28.947Z,99881.16
2023-02-12T10:25:04.746Z,99881.41
2023-02-12T10:27:48.137Z,99885.94
2023-02-12T10:30:50.176Z,99878.75
2023-02-12T10:33:40.611Z,99885.59
2023-02-12T10:36:17.103Z,99878.69
2023-02-12T10:38:50.634Z,99880.03
2023-02-12T10:41:18.371Z,99877.91
2023-02-12T10:43:45.947Z,99883.06
2023-02-12T10:46:17.453Z,99884.34
2023-02-12T10:48:49.773Z,99882.75
2023-02-12T10:51:44.703Z,99875.78
2023-02-12T10:54:32.062Z,99873.66
2023-02-12T10:57:06.535Z,99872.22
2023-02-12T10:59:35.677Z,99883.03
2023-02-12T11:02:03.584Z,99870.66
2023-02-12T11:04:33.728Z,99870.38
2023-02-12T11:07:09.946Z,99857.88
2023-02-12T11:09:45.517Z,99859.13
2023-02-12T11:12:36.571Z,99855.66
2023-02-12T11:15:08.605Z,99859.13
2023-02-12T11:17:41.500Z,99849.72
2023-02-12T11:20:17.851Z,99847.94
2023-02-12T11:22:56.262Z,99841.53
2023-02-12T11:25:27.080Z,99838.88
2023-02-12T11:28:13.979Z,99836.22
2023-02-12T11:30:54.136Z,99834.19
2023-02-12T11:33:33.394Z,99832.91
2023-02-12T11:36:15.441Z,99842.88
2023-02-12T11:39:03.950Z,99835.97
2023-02-12T11:41:38.135Z,99833.63
2023-02-12T11:44:26.694Z,99833.09
2023-02-12T11:47:25.381Z,99832.28
2023-02-12T11:50:24.305Z,99837.78
2023-02-12T11:52:54.024Z,99827.47
2023-02-12T11:55:33.404Z,99829.59
2023-02-12T11:58:13.352Z,99834.09
2023-02-12T12:00:52.312Z,99824.28
2023-02-12T12:03:34.933Z,99829.28
2023-02-12T12:06:26.832Z,99825.09
2023-02-12T12:09:03.287Z,99829.84
2023-02-12T12:11:41.267Z,99829.69
2023-02-12T12:14:24.659Z,99826.88
2023-02-12T12:17:27.637Z,99829.53
2023-02-12T12:20:14.326Z,99836.84
2023-02-12T12:23:11.280Z,99836.88
2023-02-12T12:25:44.503Z,99831.75
2023-02-12T12:28:34.654Z,99830.41
2023-02-12T12:31:15.128Z,99825.59
2023-02-12T12:33:53.513Z,99820.59
2023-02-12T12:36:51.295Z,99821.09
2023-02-12T12:39:47.121Z,99817.28
2023-02-12T12:42:20.410Z,99816.78
2023-02-12T12:45:15.531Z,99809.59
2023-02-12T12:48:01.404Z,99808.44
2023-02-12T12:50:45.965Z,99805.63
2023-02-12T12:53:34.530Z,99804.28
2023-02-12T12:56:05.051Z,99806.28
2023-02-12T12:58:38.732Z,99804.13
2023-02-12T13:01:34.230Z,99802.81
2023-02-12T13:04:44.916Z,99801.63
2023-02-12T13:07:38.495Z,99800.47
2023-02-12T13:10:43.147Z,99810.38
2023-02-12T13:13:26.391Z,99805.19
2023-02-12T13:16:11.449Z,99798.06
2023-02-12T13:18:51.204Z,99807.13
2023-02-12T13:21:43.445Z,99810.63
2023-02-12T13:24:38.675Z,99806.41
2023-02-12T13:27:17.237Z,99804.75
2023-02-12T13:29:53.014Z,99803.41
2023-02-12T13:32:24.379Z,99801.41
2023-02-12T13:34:54.232Z,99803.09
2023-02-12T13:37:54.858Z,99807.22
2023-02-12T13:40:28.333Z,99795.47
2023-02-12T13:43:19.090Z,99799.09
2023-02-12T13:46:14.216Z,99807.72
2023-02-12T13:49:16.772Z,99808.41
2023-02-12T13:51:57.383Z,99807.28
2023-02-12T13:54:41.140Z,99804.16
2023-02-12T13:57:13.765Z,99809.31
2023-02-12T13:59:44.362Z,99813.59
2023-02-12T14:02:33.835Z,99810.94
2023-02-12T14:05:16.350Z,99810.44
2023-02-12T14:07:48.000Z,99812.97
2023-02-12T14:10:41.870Z,99816.94
2023-02-12T14:13:17.789Z,99822.63
2023-02-12T14:16:40.330Z,99824.28
2023-02-12T14:19:38.526Z,99824.72
2023-02-12T14:22:35.202Z,99825.59
2023-02-12T14:25:15.106Z,99822.06
2023-02-12T14:27:45.512Z,99814.13
2023-02-12T14:30:13.317Z,99810.63
2023-02-12T14:32:56.080Z,99818.78
2023-02-12T14:35:26.266Z,99815.81
2023-02-12T14:37:58.831Z,99823.44
2023-02-12T14:40:40.715Z,99824.41
2023-02-12T14:43:29.813Z,99822.06
2023-02-12T14:45:59.999Z,99829.38
2023-02-12T14:48:51.169Z,99827.34
2023-02-12T14:52:00.053Z,99835.09
2023-02-12T14:54:49.979Z,99829.25
2023-02-12T14:57:29.604Z,99837.06
2023-02-12T15:00:06.156Z,99829.78
2023-02-12T15:02:36.547Z,99826.16
2023-02-12T15:05:16.546Z,99826.28
2023-02-12T15:07:49.327Z,99832.44
2023-02-12T15:10:20.721Z,99837.75
2023-02-12T15:13:18.903Z,99834.25
2023-02-12T15:16:09.551Z,99841.53
2023-02-12T15:19:06.668Z,99838.88
2023-02-12T15:21:35.800Z,99834.84
2023-02-12T15:24:09.331Z,99838.00
2023-02-12T15:26:41.863Z,99829.53
2023-02-12T15:29:52.716Z,99831.31
2023-02-12T15:32:27.400Z,99845.88
2023-02-12T15:34:56.271Z,99840.88
2023-02-12T15:37:27.510Z,99846.47
2023-02-12T15:40:00.564Z,99845.66
2023-02-12T15:42:30.914Z,99854.75
2023-02-12T15:45:10.732Z,99849.75
2023-02-12T15:47:38.280Z,99849.75
2023-02-12T15:50:06.349Z,99847.94
2023-02-12T15:52:38.879Z,99845.44
2023-02-12T15:55:14.334Z,99841.59
2023-02-12T15:57:44.073Z,99840.25
2023-02-12T16:00:28.979Z,99838.03
2023-02-12T16:02:56.679Z,99842.94
2023-02-12T16:05:25.250Z,99848.53
2023-02-12T16:07:53.610Z,99847.88
2023-02-12T16:10:21.942Z,99849.84
2023-02-12T16:12:51.051Z,99850.31
2023-02-12T16:15:30.796Z,99849.75
2023-02-12T16:18:00.001Z,99850.75
2023-02-12T16:20:30.883Z,99851.75
2023-02-12T16:22:59.843Z,99839.72
2023-02-12T16:25:29.136Z,99851.63
2023-02-12T16:28:07.577Z,99858.03
2023-02-12T16:30:42.887Z,99860.00
2023-02-12T16:33:32.192Z,99856.97
2023-02-12T16:36:35.070Z,99866.19
2023-02-12T16:39:08.602Z,99865.94
2023-02-12T16:41:53.802Z,99860.28
2023-02-12T16:44:26.205Z,99866.59
2023-02-12T16:46:56.668Z,99872.72
2023-02-12T16:49:26.675Z,99872.06
2023-02-12T16:52:14.431Z,99865.53
2023-02-12T16:54:42.020Z,99869.72
2023-02-12T16:57:12.469Z,99873.91
2023-02-12T16:59:43.396Z,99876.19
2023-02-12T17:02:14.094Z,99877.97
2023-02-12T17:04:42.454Z,99877.44
2023-02-12T17:07:22.566Z,99875.22
2023-02-12T17:09:50.515Z,99875.06
2023-02-12T17:12:18.227Z,99880.81
2023-02-12T17:14:45.782Z,99879.00
2023-02-12T17:17:13.221Z,99885.13
2023-02-12T17:19:40.750Z,99885.13
2023-02-12T17:22:17.681Z,99892.22
2023-02-12T17:24:49.448Z,99891.69
2023-02-12T17:27:20.739Z,99895.97
2023-02-12T17:29:48.191Z,99901.13
2023-02-12T17:32:16.444Z,99898.47
2023-02-12T17:34:49.277Z,99902.94
2023-02-12T17:37:18.439Z,99904.75
2023-02-12T17:39:45.954Z,99901.13
2023-02-12T17:42:13.496Z,99901.97
2023-02-12T17:44:41.706Z,99906.41
2023-02-12T17:47:09.245Z,99910.19
2023-02-12T17:49:38.735Z,99910.50
2023-02-12T17:52:07.478Z,99911.75
2023-02-12T17:54:35.164Z,99909.91
2023-02-12T17:57:02.996Z,99916.06
2023-02-12T17:59:30.593Z,99912.44
2023-02-12T18:02:01.306Z,99910.78
2023-02-12T18:04:28.917Z,99918.72
2023-02-12T18:06:57.742Z,99919.53
2023-02-12T18:09:25.248Z,99918.72
2023-02-12T18:11:52.914Z,99921.06
2023-02-12T18:14:20.425Z,99915.66
2023-02-12T18:16:47.924Z,99919.97
2023-02-12T18:19:15.633Z,99923.44
2023-02-12T18:21:43.087Z,99919.97
2023-02-12T18:24:11.087Z,99919.28
2023-02-12T18:26:38.484Z,99927.06
2023-02-12T18:29:06.112Z,99924.72
2023-02-12T18:31:33.787Z,99927.22
2023-02-12T18:34:01.313Z,99927.50
2023-02-12T18:36:28.776Z,99930.16
2023-02-12T18:38:56.262Z,99930.81
2023-02-12T18:41:26.405Z,99928.34
2023-02-12T18:43:54.892Z,99928.19
2023-02-12T18:46:28.726Z,99923.06
2023-02-12T18:48:57.244Z,99926.66
2023-02-12T18:51:27.793Z,99924.16
2023-02-12T18:54:05.267Z,99922.50
2023-02-12T18:56:36.797Z,99915.53
2023-02-12T18:59:05.446Z,99911.94
2023-02-12T19:01:34.999Z,99916.22
2023-02-12T19:04:05.115Z,99918.88
2023-02-12T19:06:34.411Z,99920.81
2023-02-12T19:09:03.740Z,99917.50
2023-02-12T19:11:31.427Z,99914.97
2023-02-12T19:13:59.194Z,99910.69
2023-02-12T19:16:27.266Z,99916.81
2023-02-12T19:18:58.938Z,99912.50
2023-02-12T19:21:26.571Z,99909.00
2023-02-12T19:23:56.231Z,99911.63
2023-02-12T19:26:24.661Z,99909.28
2023-02-12T19:28:52.291Z,99907.63
2023-02-12T19:31:23.385Z,99901.63
2023-02-12T19:33:55.709Z,99906.91
2023-02-12T19:36:24.658Z,99907.22
2023-02-12T19:38:52.278Z,99911.94
2023-02-12T19:41:23.896Z,99906.66
2023-02-12T19:43:59.764Z,99907.50
2023-02-12T19:46:30.364Z,99906.66
2023-02-12T19:49:02.714Z,99894.16
2023-02-12T19:51:31.027Z,99900.41
2023-02-12T19:54:02.684Z,99903.06
2023-02-12T19:56:30.733Z,99903.88
2023-02-12T19:58:58.969Z,99898.72
2023-02-12T20:01:27.197Z,99893.59
2023-02-12T20:03:55.356Z,99893.72
2023-02-12T20:06:25.534Z,99892.91
2023-02-12T20:08:53.338Z,99900.00
2023-02-12T20:11:23.582Z,99896.81
2023-02-12T20:13:51.393Z,99888.88
2023-02-12T20:16:21.850Z,99894.00
2023-02-12T20:18:52.887Z,99886.06
2023-02-12T20:21:24.966Z,99884.41
2023-02-12T20:23:52.474Z,99887.06
2023-02-12T20:26:20.042Z,99886.06
2023-02-12T20:28:48.966Z,99895.81
2023-02-12T20:31:20.663Z,99896.81
2023-02-12T20:33:52.934Z,99893.34
2023-02-12T20:36:20.382Z,99896.94
2023-02-12T20:38:52.037Z,99895.97
2023-02-12T20:41:19.777Z,99898.34
2023-02-12T20:43:47.319Z,99899.28
2023-02-12T20:46:17.351Z,99897.63
2023-02-12T20:48:44.965Z,99895.81
2023-02-12T20:51:20.874Z,99899.28
2023-02-12T20:53:49.045Z,99898.47
2023-02-12T20:56:20.061Z,99899.44
2023-02-12T20:58:48.142Z,99897.47
2023-02-12T21:01:19.053Z,99909.75
2023-02-12T21:03:46.972Z,99902.34
2023-02-12T21:06:15.192Z,99907.66
2023-02-12T21:08:43.339Z,99900.41
2023-02-12T21:11:17.248Z,99908.34
2023-02-12T21:13:58.532Z,99904.16
2023-02-12T21:16:34.532Z,99901.38
2023-02-12T21:19:02.928Z,99907.66
2023-02-12T21:21:33.201Z,99904.00
2023-02-12T21:24:02.324Z,99911.13
2023-02-12T21:26:32.026Z,99908.47
2023-02-12T21:29:01.054Z,99913.75
2023-02-12T21:31:34.974Z,99910.28
2023-02-12T21:34:05.007Z,99914.75
2023-02-12T21:36:35.685Z,99919.34
2023-02-12T21:39:07.440Z,99916.69
2023-02-12T21:41:37.947Z,99905.00
2023-02-12T21:44:17.488Z,99909.47
2023-02-12T21:46:46.152Z,99906.81
2023-02-12T21:49:17.583Z,99912.22
2023-02-12T21:51:45.442Z,99907.94
2023-02-12T21:54:17.934Z,99912.38
2023-02-12T21:56:47.508Z,99908.06
2023-02-12T21:59:15.235Z,99901.94
2023-02-12T22:01:47.112Z,99915.97
2023-02-12T22:04:15.640Z,99911.69
2023-02-12T22:06:46.182Z,99906.56
2023-02-12T22:09:16.368Z,99909.31
2023-02-12T22:11:44.269Z,99908.50
2023-02-12T22:14:15.371Z,99904.75
2023-02-12T22:16:43.045Z,99906.56
2023-02-12T22:19:10.527Z,99896.81
2023-02-12T22:21:41.067Z,99902.22
2023-02-12T22:24:11.904Z,99905.03
2023-02-12T22:26:39.383Z,99904.59
2023-02-12T22:29:09.670Z,99903.63
2023-02-12T22:31:39.699Z,99908.91
2023-02-12T22:34:12.666Z,99906.13
2023-02-12T22:36:41.217Z,99905.84
2023-02-12T22:39:10.009Z,99905.84
2023-02-12T22:41:38.104Z,99897.22
2023-02-12T22:44:05.639Z,99890.13
2023-02-12T22:46:33.705Z,99881.66
2023-02-12T22:49:01.153Z,99882.09
2023-02-12T22:51:31.418Z,99878.47
2023-02-12T22:53:59.439Z,99886.38
2023-02-12T22:56:27.251Z,99890.00
2023-02-12T22:58:59.672Z,99894.31
2023-02-12T23:01:29.131Z,99897.94
2023-02-12T23:03:57.364Z,99895.44
2023-02-12T23:06:30.534Z,99899.06
2023-02-12T23:09:01.279Z,99900.00
2023-02-12T23:11:30.480Z,99903.78
2023-02-12T23:13:58.716Z,99906.44
2023-02-12T23:16:26.513Z,99908.78
2023-02-12T23:18:58.644Z,99908.38
2023-02-12T23:21:27.972Z,99910.75
2023-02-12T23:23:56.351Z,99905.88
2023-02-12T23:26:24.096Z,99906.16
2023-02-12T23:28:51.694Z,99901.97
2023-02-12T23:31:19.380Z,99900.31
2023-02-12T23:33:47.034Z,99901.00
2023-02-12T23:36:15.280Z,99903.06
2023-02-12T23:38:42.690Z,99895.72
2023-02-12T23:41:10.227Z,99893.78
2023-02-12T23:43:37.711Z,99895.31
2023-02-12T23:46:05.434Z,99893.38
2023-02-12T23:48:32.915Z,99893.09
2023-02-12T23:51:00.487Z,99891.00
2023-02-12T23:53:27.919Z,99890.84
2023-02-12T23:55:55.427Z,99894.19
2023-02-12T23:58:23.048Z,99887.63
